sensor_id;sensor_type;location;lat;lon;timestamp;temperature;humidity
25568;DHT22;13455;51.480;7.594;2023-10-31T00:02:01;13.10;99.90
25568;DHT22;13455;51.480;7.594;2023-10-31T00:04:27;13.00;99.90
25568;DHT22;13455;51.480;7.594;2023-10-31T00:06:52;13.00;99.90
25568;DHT22;13455;51.480;7.594;2023-10-31T00:09:18;13.10;99.90
25568;DHT22;13455;51.480;7.594;2023-10-31T00:11:43;13.00;99.90
25568;DHT22;13455;51.480;7.594;2023-10-31T00:14:09;13.00;99.90
25568;DHT22;13455;51.480;7.594;2023-10-31T00:16:35;12.90;99.90
25568;DHT22;13455;51.480;7.594;2023-10-31T00:19:01;12.90;99.90
25568;DHT22;13455;51.480;7.594;2023-10-31T00:21:26;12.90;99.90
25568;DHT22;13455;51.480;7.594;2023-10-31T00:23:52;12.70;99.90
25568;DHT22;13455;51.480;7.594;2023-10-31T00:26:17;12.70;99.90
25568;DHT22;13455;51.480;7.594;2023-10-31T00:28:43;12.70;99.90
25568;DHT22;13455;51.480;7.594;2023-10-31T00:31:09;12.90;99.90
25568;DHT22;13455;51.480;7.594;2023-10-31T00:33:37;12.70;99.90
25568;DHT22;13455;51.480;7.594;2023-10-31T00:36:03;12.50;99.90
25568;DHT22;13455;51.480;7.594;2023-10-31T00:38:29;12.50;99.90
25568;DHT22;13455;51.480;7.594;2023-10-31T00:40:54;12.30;99.90
25568;DHT22;13455;51.480;7.594;2023-10-31T00:43:20;12.30;99.90
25568;DHT22;13455;51.480;7.594;2023-10-31T00:45:46;12.40;99.90
25568;DHT22;13455;51.480;7.594;2023-10-31T00:48:11;12.20;99.90
25568;DHT22;13455;51.480;7.594;2023-10-31T00:50:37;12.20;99.90
25568;DHT22;13455;51.480;7.594;2023-10-31T00:53:02;12.10;99.90
25568;DHT22;13455;51.480;7.594;2023-10-31T00:55:28;12.10;99.90
25568;DHT22;13455;51.480;7.594;2023-10-31T00:57:53;12.00;99.90
25568;DHT22;13455;51.480;7.594;2023-10-31T01:00:19;12.00;99.90
25568;DHT22;13455;51.480;7.594;2023-10-31T01:02:45;12.00;99.90
25568;DHT22;13455;51.480;7.594;2023-10-31T01:05:11;12.00;99.90
25568;DHT22;13455;51.480;7.594;2023-10-31T01:07:36;11.90;99.90
25568;DHT22;13455;51.480;7.594;2023-10-31T01:10:03;11.80;99.90
25568;DHT22;13455;51.480;7.594;2023-10-31T01:12:29;11.80;99.90
25568;DHT22;13455;51.480;7.594;2023-10-31T01:14:54;11.80;99.90
25568;DHT22;13455;51.480;7.594;2023-10-31T01:17:21;11.80;99.90
25568;DHT22;13455;51.480;7.594;2023-10-31T01:19:46;11.70;99.90
25568;DHT22;13455;51.480;7.594;2023-10-31T01:22:12;11.70;99.90
25568;DHT22;13455;51.480;7.594;2023-10-31T01:24:38;11.60;99.90
25568;DHT22;13455;51.480;7.594;2023-10-31T01:27:03;11.60;99.90
25568;DHT22;13455;51.480;7.594;2023-10-31T01:29:29;11.60;99.90
25568;DHT22;13455;51.480;7.594;2023-10-31T01:31:55;11.60;99.90
25568;DHT22;13455;51.480;7.594;2023-10-31T01:34:20;11.60;99.90
25568;DHT22;13455;51.480;7.594;2023-10-31T01:36:46;11.50;99.90
25568;DHT22;13455;51.480;7.594;2023-10-31T01:39:12;11.50;99.90
25568;DHT22;13455;51.480;7.594;2023-10-31T01:41:37;11.50;99.90
25568;DHT22;13455;51.480;7.594;2023-10-31T01:44:03;11.50;99.90
25568;DHT22;13455;51.480;7.594;2023-10-31T01:46:28;11.40;99.90
25568;DHT22;13455;51.480;7.594;2023-10-31T01:48:54;11.30;99.90
25568;DHT22;13455;51.480;7.594;2023-10-31T01:51:20;11.30;99.90
25568;DHT22;13455;51.480;7.594;2023-10-31T01:53:47;11.30;99.90
25568;DHT22;13455;51.480;7.594;2023-10-31T01:56:13;11.10;99.90
25568;DHT22;13455;51.480;7.594;2023-10-31T02:01:05;11.20;99.90
25568;DHT22;13455;51.480;7.594;2023-10-31T02:03:32;11.30;99.90
25568;DHT22;13455;51.480;7.594;2023-10-31T02:05:58;11.20;99.90
25568;DHT22;13455;51.480;7.594;2023-10-31T02:08:25;11.20;99.90
25568;DHT22;13455;51.480;7.594;2023-10-31T02:10:51;11.20;99.90
25568;DHT22;13455;51.480;7.594;2023-10-31T02:13:18;11.20;99.90
25568;DHT22;13455;51.480;7.594;2023-10-31T02:15:44;11.20;99.90
25568;DHT22;13455;51.480;7.594;2023-10-31T02:18:10;11.20;99.90
25568;DHT22;13455;51.480;7.594;2023-10-31T02:20:36;11.20;99.90
25568;DHT22;13455;51.480;7.594;2023-10-31T02:23:03;11.10;99.90
25568;DHT22;13455;51.480;7.594;2023-10-31T02:25:29;11.10;99.90
25568;DHT22;13455;51.480;7.594;2023-10-31T02:27:54;11.10;99.90
25568;DHT22;13455;51.480;7.594;2023-10-31T02:30:20;11.10;99.90
25568;DHT22;13455;51.480;7.594;2023-10-31T02:32:46;11.10;99.90
25568;DHT22;13455;51.480;7.594;2023-10-31T02:35:12;11.00;99.90
25568;DHT22;13455;51.480;7.594;2023-10-31T02:37:38;11.00;99.90
25568;DHT22;13455;51.480;7.594;2023-10-31T02:40:04;11.00;99.90
25568;DHT22;13455;51.480;7.594;2023-10-31T02:42:29;11.00;99.90
25568;DHT22;13455;51.480;7.594;2023-10-31T02:44:56;11.00;99.90
25568;DHT22;13455;51.480;7.594;2023-10-31T02:47:21;11.00;99.90
25568;DHT22;13455;51.480;7.594;2023-10-31T02:49:47;10.90;99.90
25568;DHT22;13455;51.480;7.594;2023-10-31T02:52:12;10.90;99.90
25568;DHT22;13455;51.480;7.594;2023-10-31T02:54:38;10.90;99.90
25568;DHT22;13455;51.480;7.594;2023-10-31T02:57:04;10.90;99.90
25568;DHT22;13455;51.480;7.594;2023-10-31T02:59:30;10.90;99.90
25568;DHT22;13455;51.480;7.594;2023-10-31T03:01:56;10.90;99.90
25568;DHT22;13455;51.480;7.594;2023-10-31T03:04:23;10.90;99.90
25568;DHT22;13455;51.480;7.594;2023-10-31T03:06:48;10.90;99.90
25568;DHT22;13455;51.480;7.594;2023-10-31T03:09:14;10.80;99.90
25568;DHT22;13455;51.480;7.594;2023-10-31T03:11:39;10.80;99.90
25568;DHT22;13455;51.480;7.594;2023-10-31T03:14:05;10.80;99.90
25568;DHT22;13455;51.480;7.594;2023-10-31T03:16:31;10.80;99.90
25568;DHT22;13455;51.480;7.594;2023-10-31T03:18:58;10.80;99.90
25568;DHT22;13455;51.480;7.594;2023-10-31T03:21:24;10.80;99.90
25568;DHT22;13455;51.480;7.594;2023-10-31T03:23:50;10.80;99.90
25568;DHT22;13455;51.480;7.594;2023-10-31T03:26:19;10.80;99.90
25568;DHT22;13455;51.480;7.594;2023-10-31T03:28:45;10.80;99.90
25568;DHT22;13455;51.480;7.594;2023-10-31T03:31:12;10.80;99.90
25568;DHT22;13455;51.480;7.594;2023-10-31T03:33:38;10.80;99.90
25568;DHT22;13455;51.480;7.594;2023-10-31T03:36:04;10.80;99.90
25568;DHT22;13455;51.480;7.594;2023-10-31T03:38:31;10.70;99.90
25568;DHT22;13455;51.480;7.594;2023-10-31T03:40:56;10.70;99.90
25568;DHT22;13455;51.480;7.594;2023-10-31T03:43:22;10.70;99.90
25568;DHT22;13455;51.480;7.594;2023-10-31T03:45:47;10.70;99.90
25568;DHT22;13455;51.480;7.594;2023-10-31T03:48:13;10.70;99.90
25568;DHT22;13455;51.480;7.594;2023-10-31T03:50:39;10.70;99.90
25568;DHT22;13455;51.480;7.594;2023-10-31T03:53:04;10.70;99.90
25568;DHT22;13455;51.480;7.594;2023-10-31T03:55:30;10.70;99.90
25568;DHT22;13455;51.480;7.594;2023-10-31T03:57:56;10.70;99.90
25568;DHT22;13455;51.480;7.594;2023-10-31T04:00:22;10.70;99.90
25568;DHT22;13455;51.480;7.594;2023-10-31T04:02:47;10.40;99.90
25568;DHT22;13455;51.480;7.594;2023-10-31T04:05:13;10.70;99.90
25568;DHT22;13455;51.480;7.594;2023-10-31T04:07:38;10.70;99.90
25568;DHT22;13455;51.480;7.594;2023-10-31T04:10:04;10.70;99.90
25568;DHT22;13455;51.480;7.594;2023-10-31T04:12:31;10.70;99.90
25568;DHT22;13455;51.480;7.594;2023-10-31T04:14:57;10.70;99.90
25568;DHT22;13455;51.480;7.594;2023-10-31T04:17:23;10.80;99.90
25568;DHT22;13455;51.480;7.594;2023-10-31T04:19:48;10.90;99.90
25568;DHT22;13455;51.480;7.594;2023-10-31T04:22:14;10.70;99.90
25568;DHT22;13455;51.480;7.594;2023-10-31T04:24:39;10.80;99.90
25568;DHT22;13455;51.480;7.594;2023-10-31T04:27:06;10.70;99.90
25568;DHT22;13455;51.480;7.594;2023-10-31T04:29:32;10.70;99.90
25568;DHT22;13455;51.480;7.594;2023-10-31T04:31:58;10.70;99.90
25568;DHT22;13455;51.480;7.594;2023-10-31T04:34:23;10.70;99.90
25568;DHT22;13455;51.480;7.594;2023-10-31T04:36:49;10.70;99.90
25568;DHT22;13455;51.480;7.594;2023-10-31T04:39:15;11.00;99.90
25568;DHT22;13455;51.480;7.594;2023-10-31T04:41:41;10.70;99.90
25568;DHT22;13455;51.480;7.594;2023-10-31T04:44:06;10.70;99.90
25568;DHT22;13455;51.480;7.594;2023-10-31T04:46:32;10.70;99.90
25568;DHT22;13455;51.480;7.594;2023-10-31T04:48:57;10.70;99.90
25568;DHT22;13455;51.480;7.594;2023-10-31T04:51:23;10.80;99.90
25568;DHT22;13455;51.480;7.594;2023-10-31T04:53:49;10.70;99.90
25568;DHT22;13455;51.480;7.594;2023-10-31T04:56:15;10.70;99.90
25568;DHT22;13455;51.480;7.594;2023-10-31T04:58:42;10.70;99.90
25568;DHT22;13455;51.480;7.594;2023-10-31T05:01:09;10.60;99.90
25568;DHT22;13455;51.480;7.594;2023-10-31T05:03:34;10.70;99.90
25568;DHT22;13455;51.480;7.594;2023-10-31T05:06:00;10.70;99.90
25568;DHT22;13455;51.480;7.594;2023-10-31T05:08:26;10.60;99.90
25568;DHT22;13455;51.480;7.594;2023-10-31T05:10:51;10.80;99.90
25568;DHT22;13455;51.480;7.594;2023-10-31T05:13:17;10.70;99.90
25568;DHT22;13455;51.480;7.594;2023-10-31T05:15:42;10.70;99.90
25568;DHT22;13455;51.480;7.594;2023-10-31T05:18:09;10.60;99.90
25568;DHT22;13455;51.480;7.594;2023-10-31T05:20:34;10.90;99.90
25568;DHT22;13455;51.480;7.594;2023-10-31T05:23:00;10.70;99.90
25568;DHT22;13455;51.480;7.594;2023-10-31T05:25:25;10.60;99.90
25568;DHT22;13455;51.480;7.594;2023-10-31T05:27:51;10.60;99.90
25568;DHT22;13455;51.480;7.594;2023-10-31T05:30:17;10.60;99.90
25568;DHT22;13455;51.480;7.594;2023-10-31T05:32:43;10.60;99.90
25568;DHT22;13455;51.480;7.594;2023-10-31T05:35:10;10.60;99.90
25568;DHT22;13455;51.480;7.594;2023-10-31T05:37:36;10.70;99.90
25568;DHT22;13455;51.480;7.594;2023-10-31T05:40:02;10.70;99.90
25568;DHT22;13455;51.480;7.594;2023-10-31T05:42:28;10.50;99.90
25568;DHT22;13455;51.480;7.594;2023-10-31T05:44:54;10.60;99.90
25568;DHT22;13455;51.480;7.594;2023-10-31T05:47:20;10.70;99.90
25568;DHT22;13455;51.480;7.594;2023-10-31T05:49:46;10.60;99.90
25568;DHT22;13455;51.480;7.594;2023-10-31T05:52:12;10.60;99.90
25568;DHT22;13455;51.480;7.594;2023-10-31T05:54:37;10.60;99.90
25568;DHT22;13455;51.480;7.594;2023-10-31T05:57:03;10.60;99.90
25568;DHT22;13455;51.480;7.594;2023-10-31T05:59:29;10.70;99.90
25568;DHT22;13455;51.480;7.594;2023-10-31T06:01:55;10.60;99.90
25568;DHT22;13455;51.480;7.594;2023-10-31T06:04:21;10.50;99.90
25568;DHT22;13455;51.480;7.594;2023-10-31T06:06:46;10.60;99.90
25568;DHT22;13455;51.480;7.594;2023-10-31T06:09:12;10.60;99.90
25568;DHT22;13455;51.480;7.594;2023-10-31T06:11:41;10.60;99.90
25568;DHT22;13455;51.480;7.594;2023-10-31T06:14:07;10.60;99.90
25568;DHT22;13455;51.480;7.594;2023-10-31T06:16:33;10.60;99.90
25568;DHT22;13455;51.480;7.594;2023-10-31T06:19:04;10.50;99.90
25568;DHT22;13455;51.480;7.594;2023-10-31T06:21:30;10.50;99.90
25568;DHT22;13455;51.480;7.594;2023-10-31T06:23:55;10.50;99.90
25568;DHT22;13455;51.480;7.594;2023-10-31T06:26:21;10.50;99.90
25568;DHT22;13455;51.480;7.594;2023-10-31T06:28:46;10.50;99.90
25568;DHT22;13455;51.480;7.594;2023-10-31T06:31:12;10.70;99.90
25568;DHT22;13455;51.480;7.594;2023-10-31T06:33:37;10.60;99.90
25568;DHT22;13455;51.480;7.594;2023-10-31T06:36:03;10.60;99.90
25568;DHT22;13455;51.480;7.594;2023-10-31T06:38:29;10.60;99.90
25568;DHT22;13455;51.480;7.594;2023-10-31T06:40:55;10.60;99.90
25568;DHT22;13455;51.480;7.594;2023-10-31T06:43:22;10.50;99.90
25568;DHT22;13455;51.480;7.594;2023-10-31T06:45:48;10.60;99.90
25568;DHT22;13455;51.480;7.594;2023-10-31T06:48:13;10.50;99.90
25568;DHT22;13455;51.480;7.594;2023-10-31T06:50:39;10.50;99.90
25568;DHT22;13455;51.480;7.594;2023-10-31T06:53:04;10.60;99.90
25568;DHT22;13455;51.480;7.594;2023-10-31T06:55:30;10.60;99.90
25568;DHT22;13455;51.480;7.594;2023-10-31T06:57:55;10.60;99.90
25568;DHT22;13455;51.480;7.594;2023-10-31T07:00:21;10.60;99.90
25568;DHT22;13455;51.480;7.594;2023-10-31T07:02:46;10.60;99.90
25568;DHT22;13455;51.480;7.594;2023-10-31T07:05:13;10.60;99.90
25568;DHT22;13455;51.480;7.594;2023-10-31T07:07:39;10.60;99.90
25568;DHT22;13455;51.480;7.594;2023-10-31T07:10:05;10.60;99.90
25568;DHT22;13455;51.480;7.594;2023-10-31T07:12:31;10.60;99.90
25568;DHT22;13455;51.480;7.594;2023-10-31T07:14:56;10.60;99.90
25568;DHT22;13455;51.480;7.594;2023-10-31T07:17:24;10.60;99.90
25568;DHT22;13455;51.480;7.594;2023-10-31T07:19:50;10.60;99.90
25568;DHT22;13455;51.480;7.594;2023-10-31T07:22:16;10.60;99.90
25568;DHT22;13455;51.480;7.594;2023-10-31T07:24:41;10.60;99.90
25568;DHT22;13455;51.480;7.594;2023-10-31T07:27:08;10.60;99.90
25568;DHT22;13455;51.480;7.594;2023-10-31T07:29:34;10.60;99.90
25568;DHT22;13455;51.480;7.594;2023-10-31T07:32:00;10.70;99.90
25568;DHT22;13455;51.480;7.594;2023-10-31T07:34:25;10.70;99.90
25568;DHT22;13455;51.480;7.594;2023-10-31T07:36:51;10.70;99.90
25568;DHT22;13455;51.480;7.594;2023-10-31T07:39:17;10.70;99.90
25568;DHT22;13455;51.480;7.594;2023-10-31T07:41:42;10.70;99.90
25568;DHT22;13455;51.480;7.594;2023-10-31T07:44:08;10.70;99.90
25568;DHT22;13455;51.480;7.594;2023-10-31T07:46:33;10.70;99.90
25568;DHT22;13455;51.480;7.594;2023-10-31T07:48:59;10.70;99.90
25568;DHT22;13455;51.480;7.594;2023-10-31T07:51:24;10.70;99.90
25568;DHT22;13455;51.480;7.594;2023-10-31T07:53:50;10.80;99.90
25568;DHT22;13455;51.480;7.594;2023-10-31T07:56:16;10.80;99.90
25568;DHT22;13455;51.480;7.594;2023-10-31T07:58:43;10.80;99.90
25568;DHT22;13455;51.480;7.594;2023-10-31T08:01:08;10.80;99.90
25568;DHT22;13455;51.480;7.594;2023-10-31T08:03:36;10.80;99.90
25568;DHT22;13455;51.480;7.594;2023-10-31T08:06:05;10.80;99.90
25568;DHT22;13455;51.480;7.594;2023-10-31T08:08:30;10.80;99.90
25568;DHT22;13455;51.480;7.594;2023-10-31T08:10:56;10.80;99.90
25568;DHT22;13455;51.480;7.594;2023-10-31T08:13:23;10.80;99.90
25568;DHT22;13455;51.480;7.594;2023-10-31T08:15:49;10.80;99.90
25568;DHT22;13455;51.480;7.594;2023-10-31T08:18:15;10.90;99.90
25568;DHT22;13455;51.480;7.594;2023-10-31T08:20:41;10.80;99.90
25568;DHT22;13455;51.480;7.594;2023-10-31T08:23:08;10.80;99.90
25568;DHT22;13455;51.480;7.594;2023-10-31T08:25:34;10.80;99.90
25568;DHT22;13455;51.480;7.594;2023-10-31T08:27:59;10.90;99.90
25568;DHT22;13455;51.480;7.594;2023-10-31T08:30:25;11.00;99.90
25568;DHT22;13455;51.480;7.594;2023-10-31T08:32:51;10.90;99.90
25568;DHT22;13455;51.480;7.594;2023-10-31T08:35:16;11.00;99.90
25568;DHT22;13455;51.480;7.594;2023-10-31T08:37:42;11.00;99.90
25568;DHT22;13455;51.480;7.594;2023-10-31T08:40:08;11.00;99.90
25568;DHT22;13455;51.480;7.594;2023-10-31T08:42:33;11.10;99.90
25568;DHT22;13455;51.480;7.594;2023-10-31T08:44:59;11.30;99.90
25568;DHT22;13455;51.480;7.594;2023-10-31T08:47:25;11.10;99.90
25568;DHT22;13455;51.480;7.594;2023-10-31T08:49:50;11.10;99.90
25568;DHT22;13455;51.480;7.594;2023-10-31T08:52:16;11.10;99.90
25568;DHT22;13455;51.480;7.594;2023-10-31T08:54:43;11.00;99.90
25568;DHT22;13455;51.480;7.594;2023-10-31T08:57:08;11.20;99.90
25568;DHT22;13455;51.480;7.594;2023-10-31T08:59:34;11.20;99.90
25568;DHT22;13455;51.480;7.594;2023-10-31T09:02:01;11.20;99.90
25568;DHT22;13455;51.480;7.594;2023-10-31T09:04:26;11.20;99.90
25568;DHT22;13455;51.480;7.594;2023-10-31T09:06:52;11.20;99.90
25568;DHT22;13455;51.480;7.594;2023-10-31T09:09:17;11.30;99.90
25568;DHT22;13455;51.480;7.594;2023-10-31T09:11:43;11.30;99.90
25568;DHT22;13455;51.480;7.594;2023-10-31T09:14:09;11.30;99.90
25568;DHT22;13455;51.480;7.594;2023-10-31T09:16:35;11.30;99.90
25568;DHT22;13455;51.480;7.594;2023-10-31T09:19:00;11.30;99.90
25568;DHT22;13455;51.480;7.594;2023-10-31T09:21:26;11.40;99.90
25568;DHT22;13455;51.480;7.594;2023-10-31T09:23:52;11.40;99.90
25568;DHT22;13455;51.480;7.594;2023-10-31T09:26:17;11.40;99.90
25568;DHT22;13455;51.480;7.594;2023-10-31T09:28:43;11.40;99.90
25568;DHT22;13455;51.480;7.594;2023-10-31T09:31:18;11.60;99.90
25568;DHT22;13455;51.480;7.594;2023-10-31T09:33:45;11.50;99.90
25568;DHT22;13455;51.480;7.594;2023-10-31T09:36:11;11.60;99.90
25568;DHT22;13455;51.480;7.594;2023-10-31T09:38:36;11.70;99.90
25568;DHT22;13455;51.480;7.594;2023-10-31T09:41:03;11.70;99.90
25568;DHT22;13455;51.480;7.594;2023-10-31T09:43:28;11.80;99.90
25568;DHT22;13455;51.480;7.594;2023-10-31T09:45:54;11.80;99.90
25568;DHT22;13455;51.480;7.594;2023-10-31T09:48:22;11.90;99.90
25568;DHT22;13455;51.480;7.594;2023-10-31T09:50:49;12.20;99.90
25568;DHT22;13455;51.480;7.594;2023-10-31T09:53:15;12.20;99.90
25568;DHT22;13455;51.480;7.594;2023-10-31T09:55:45;12.00;99.90
25568;DHT22;13455;51.480;7.594;2023-10-31T10:00:37;12.10;99.90
25568;DHT22;13455;51.480;7.594;2023-10-31T10:03:06;12.20;99.90
25568;DHT22;13455;51.480;7.594;2023-10-31T10:05:35;12.30;99.90
25568;DHT22;13455;51.480;7.594;2023-10-31T10:08:00;12.30;99.90
25568;DHT22;13455;51.480;7.594;2023-10-31T10:10:26;12.30;99.90
25568;DHT22;13455;51.480;7.594;2023-10-31T10:12:52;12.20;99.90
25568;DHT22;13455;51.480;7.594;2023-10-31T10:15:18;12.20;99.90
25568;DHT22;13455;51.480;7.594;2023-10-31T10:20:17;12.10;99.90
25568;DHT22;13455;51.480;7.594;2023-10-31T10:22:44;12.20;99.90
25568;DHT22;13455;51.480;7.594;2023-10-31T10:25:12;12.40;99.90
25568;DHT22;13455;51.480;7.594;2023-10-31T10:27:39;12.30;99.90
25568;DHT22;13455;51.480;7.594;2023-10-31T10:30:08;12.30;99.90
25568;DHT22;13455;51.480;7.594;2023-10-31T10:32:34;12.30;99.90
25568;DHT22;13455;51.480;7.594;2023-10-31T10:35:00;12.30;99.90
25568;DHT22;13455;51.480;7.594;2023-10-31T10:37:29;12.40;99.90
25568;DHT22;13455;51.480;7.594;2023-10-31T10:39:56;12.40;99.90
25568;DHT22;13455;51.480;7.594;2023-10-31T10:42:45;12.50;99.90
25568;DHT22;13455;51.480;7.594;2023-10-31T10:45:13;12.50;99.90
25568;DHT22;13455;51.480;7.594;2023-10-31T10:47:39;12.40;99.90
25568;DHT22;13455;51.480;7.594;2023-10-31T10:50:08;12.50;99.90
25568;DHT22;13455;51.480;7.594;2023-10-31T10:52:41;12.50;99.90
25568;DHT22;13455;51.480;7.594;2023-10-31T10:55:20;12.60;99.90
25568;DHT22;13455;51.480;7.594;2023-10-31T11:00:20;12.50;99.90
25568;DHT22;13455;51.480;7.594;2023-10-31T11:02:51;12.50;99.90
25568;DHT22;13455;51.480;7.594;2023-10-31T11:05:18;12.40;99.90
25568;DHT22;13455;51.480;7.594;2023-10-31T11:07:44;12.40;99.90
25568;DHT22;13455;51.480;7.594;2023-10-31T11:10:11;12.40;99.90
25568;DHT22;13455;51.480;7.594;2023-10-31T11:12:37;12.40;99.90
25568;DHT22;13455;51.480;7.594;2023-10-31T11:15:05;12.40;99.90
25568;DHT22;13455;51.480;7.594;2023-10-31T11:17:35;12.40;99.90
25568;DHT22;13455;51.480;7.594;2023-10-31T11:20:02;12.60;99.90
25568;DHT22;13455;51.480;7.594;2023-10-31T11:22:40;12.40;99.90
25568;DHT22;13455;51.480;7.594;2023-10-31T11:25:11;12.50;99.90
25568;DHT22;13455;51.480;7.594;2023-10-31T11:27:37;12.50;99.90
25568;DHT22;13455;51.480;7.594;2023-10-31T11:30:22;12.50;99.90
25568;DHT22;13455;51.480;7.594;2023-10-31T11:32:54;12.40;99.90
25568;DHT22;13455;51.480;7.594;2023-10-31T11:35:22;12.50;99.90
25568;DHT22;13455;51.480;7.594;2023-10-31T11:37:49;12.60;99.90
25568;DHT22;13455;51.480;7.594;2023-10-31T11:40:25;12.50;99.90
25568;DHT22;13455;51.480;7.594;2023-10-31T11:42:57;12.50;99.90
25568;DHT22;13455;51.480;7.594;2023-10-31T11:45:43;12.50;99.90
25568;DHT22;13455;51.480;7.594;2023-10-31T11:48:13;12.60;99.90
25568;DHT22;13455;51.480;7.594;2023-10-31T11:50:39;12.80;99.90
25568;DHT22;13455;51.480;7.594;2023-10-31T11:53:13;12.70;99.90
25568;DHT22;13455;51.480;7.594;2023-10-31T11:55:42;12.70;99.90
25568;DHT22;13455;51.480;7.594;2023-10-31T11:58:18;12.80;99.90
25568;DHT22;13455;51.480;7.594;2023-10-31T12:00:45;12.70;99.90
25568;DHT22;13455;51.480;7.594;2023-10-31T12:03:11;12.70;99.90
25568;DHT22;13455;51.480;7.594;2023-10-31T12:05:36;12.60;99.90
25568;DHT22;13455;51.480;7.594;2023-10-31T12:08:02;13.40;99.90
25568;DHT22;13455;51.480;7.594;2023-10-31T12:10:29;12.70;99.90
25568;DHT22;13455;51.480;7.594;2023-10-31T12:12:56;12.70;99.90
25568;DHT22;13455;51.480;7.594;2023-10-31T12:15:22;12.70;99.90
25568;DHT22;13455;51.480;7.594;2023-10-31T12:17:49;12.70;99.90
25568;DHT22;13455;51.480;7.594;2023-10-31T12:20:15;12.70;99.90
25568;DHT22;13455;51.480;7.594;2023-10-31T12:22:42;12.80;99.90
25568;DHT22;13455;51.480;7.594;2023-10-31T12:25:09;12.80;99.90
25568;DHT22;13455;51.480;7.594;2023-10-31T12:27:46;12.80;99.90
25568;DHT22;13455;51.480;7.594;2023-10-31T12:30:13;12.90;99.90
25568;DHT22;13455;51.480;7.594;2023-10-31T12:32:40;12.90;99.90
25568;DHT22;13455;51.480;7.594;2023-10-31T12:35:14;13.00;99.90
25568;DHT22;13455;51.480;7.594;2023-10-31T12:37:44;13.10;99.90
25568;DHT22;13455;51.480;7.594;2023-10-31T12:40:17;13.30;99.90
25568;DHT22;13455;51.480;7.594;2023-10-31T12:42:47;13.30;99.90
25568;DHT22;13455;51.480;7.594;2023-10-31T12:45:14;13.40;99.90
25568;DHT22;13455;51.480;7.594;2023-10-31T12:47:40;13.40;99.90
25568;DHT22;13455;51.480;7.594;2023-10-31T12:50:07;13.50;99.90
25568;DHT22;13455;51.480;7.594;2023-10-31T12:52:49;13.70;99.90
25568;DHT22;13455;51.480;7.594;2023-10-31T12:57:43;13.90;99.90
25568;DHT22;13455;51.480;7.594;2023-10-31T13:05:10;14.10;99.90
25568;DHT22;13455;51.480;7.594;2023-10-31T13:07:37;13.90;99.90
25568;DHT22;13455;51.480;7.594;2023-10-31T13:10:04;13.90;99.90
25568;DHT22;13455;51.480;7.594;2023-10-31T13:12:30;13.90;99.90
25568;DHT22;13455;51.480;7.594;2023-10-31T13:14:56;13.90;99.90
25568;DHT22;13455;51.480;7.594;2023-10-31T13:17:22;13.90;99.90
25568;DHT22;13455;51.480;7.594;2023-10-31T13:19:47;14.00;99.90
25568;DHT22;13455;51.480;7.594;2023-10-31T13:22:13;14.40;99.90
25568;DHT22;13455;51.480;7.594;2023-10-31T13:24:38;14.40;99.90
25568;DHT22;13455;51.480;7.594;2023-10-31T13:31:59;14.20;99.90
25568;DHT22;13455;51.480;7.594;2023-10-31T13:34:24;14.10;99.90
25568;DHT22;13455;51.480;7.594;2023-10-31T13:36:50;14.10;99.90
25568;DHT22;13455;51.480;7.594;2023-10-31T13:39:17;14.10;99.90
25568;DHT22;13455;51.480;7.594;2023-10-31T13:41:43;14.10;99.90
25568;DHT22;13455;51.480;7.594;2023-10-31T13:44:09;14.10;99.90
25568;DHT22;13455;51.480;7.594;2023-10-31T13:46:34;15.00;99.90
25568;DHT22;13455;51.480;7.594;2023-10-31T13:49:00;14.00;99.90
25568;DHT22;13455;51.480;7.594;2023-10-31T13:51:26;14.00;99.90
25568;DHT22;13455;51.480;7.594;2023-10-31T13:53:51;14.00;99.90
25568;DHT22;13455;51.480;7.594;2023-10-31T13:56:17;14.00;99.90
25568;DHT22;13455;51.480;7.594;2023-10-31T13:58:42;14.00;99.90
25568;DHT22;13455;51.480;7.594;2023-10-31T14:03:34;14.10;99.90
25568;DHT22;13455;51.480;7.594;2023-10-31T14:06:00;14.10;99.90
25568;DHT22;13455;51.480;7.594;2023-10-31T14:08:25;14.10;99.90
25568;DHT22;13455;51.480;7.594;2023-10-31T14:10:51;14.00;99.90
25568;DHT22;13455;51.480;7.594;2023-10-31T14:13:17;14.00;99.90
25568;DHT22;13455;51.480;7.594;2023-10-31T14:15:45;13.90;99.90
25568;DHT22;13455;51.480;7.594;2023-10-31T14:18:12;14.00;99.90
25568;DHT22;13455;51.480;7.594;2023-10-31T14:20:38;13.80;99.90
25568;DHT22;13455;51.480;7.594;2023-10-31T14:23:05;13.90;99.90
25568;DHT22;13455;51.480;7.594;2023-10-31T14:25:31;13.80;99.90
25568;DHT22;13455;51.480;7.594;2023-10-31T14:27:56;13.80;99.90
25568;DHT22;13455;51.480;7.594;2023-10-31T14:30:22;13.80;99.90
25568;DHT22;13455;51.480;7.594;2023-10-31T14:32:48;13.80;99.90
25568;DHT22;13455;51.480;7.594;2023-10-31T14:35:13;13.70;99.90
25568;DHT22;13455;51.480;7.594;2023-10-31T14:37:39;13.70;99.90
25568;DHT22;13455;51.480;7.594;2023-10-31T14:40:05;13.60;99.90
25568;DHT22;13455;51.480;7.594;2023-10-31T14:42:31;13.60;99.90
25568;DHT22;13455;51.480;7.594;2023-10-31T14:44:57;13.60;99.90
25568;DHT22;13455;51.480;7.594;2023-10-31T14:47:23;13.60;99.90
25568;DHT22;13455;51.480;7.594;2023-10-31T14:49:48;13.50;99.90
25568;DHT22;13455;51.480;7.594;2023-10-31T14:52:14;13.50;99.90
25568;DHT22;13455;51.480;7.594;2023-10-31T14:54:39;13.50;99.90
25568;DHT22;13455;51.480;7.594;2023-10-31T14:57:05;13.50;99.90
25568;DHT22;13455;51.480;7.594;2023-10-31T14:59:31;13.50;99.90
25568;DHT22;13455;51.480;7.594;2023-10-31T15:01:56;13.50;99.90
25568;DHT22;13455;51.480;7.594;2023-10-31T15:04:22;13.50;99.90
25568;DHT22;13455;51.480;7.594;2023-10-31T15:06:47;13.40;99.90
25568;DHT22;13455;51.480;7.594;2023-10-31T15:09:13;13.50;99.90
25568;DHT22;13455;51.480;7.594;2023-10-31T15:11:39;13.40;99.90
25568;DHT22;13455;51.480;7.594;2023-10-31T15:14:05;13.40;99.90
25568;DHT22;13455;51.480;7.594;2023-10-31T15:16:30;13.30;99.90
25568;DHT22;13455;51.480;7.594;2023-10-31T15:18:57;13.30;99.90
25568;DHT22;13455;51.480;7.594;2023-10-31T15:21:23;13.30;99.90
25568;DHT22;13455;51.480;7.594;2023-10-31T15:23:49;13.30;99.90
25568;DHT22;13455;51.480;7.594;2023-10-31T15:26:14;13.20;99.90
25568;DHT22;13455;51.480;7.594;2023-10-31T15:28:41;13.10;99.90
25568;DHT22;13455;51.480;7.594;2023-10-31T15:31:08;13.10;99.90
25568;DHT22;13455;51.480;7.594;2023-10-31T15:33:34;13.10;99.90
25568;DHT22;13455;51.480;7.594;2023-10-31T15:36:00;13.10;99.90
25568;DHT22;13455;51.480;7.594;2023-10-31T15:38:25;13.10;99.90
25568;DHT22;13455;51.480;7.594;2023-10-31T15:40:52;13.00;99.90
25568;DHT22;13455;51.480;7.594;2023-10-31T15:43:18;13.00;99.90
25568;DHT22;13455;51.480;7.594;2023-10-31T15:45:43;12.90;99.90
25568;DHT22;13455;51.480;7.594;2023-10-31T15:48:09;12.90;99.90
25568;DHT22;13455;51.480;7.594;2023-10-31T15:50:35;12.90;99.90